sensor_id;sensor_type;location;lat;lon;timestamp;P1;durP1;ratioP1;P2;durP2;ratioP2
22017;SDS011;11173;51.050;7.108;2024-02-14T00:00:56;1.60;;;0.90;;
22017;SDS011;11173;51.050;7.108;2024-02-14T00:10:56;1.00;;;0.90;;
22017;SDS011;11173;51.050;7.108;2024-02-14T00:20:56;0.60;;;0.60;;
22017;SDS011;11173;51.050;7.108;2024-02-14T00:30:57;0.70;;;0.70;;
22017;SDS011;11173;51.050;7.108;2024-02-14T00:40:58;1.05;;;0.60;;
22017;SDS011;11173;51.050;7.108;2024-02-14T00:50:58;0.60;;;0.60;;
22017;SDS011;11173;51.050;7.108;2024-02-14T01:00:59;0.93;;;0.60;;
22017;SDS011;11173;51.050;7.108;2024-02-14T01:11:00;0.40;;;0.40;;
22017;SDS011;11173;51.050;7.108;2024-02-14T01:21:00;0.52;;;0.50;;
22017;SDS011;11173;51.050;7.108;2024-02-14T01:31:01;0.40;;;0.40;;
22017;SDS011;11173;51.050;7.108;2024-02-14T01:41:02;0.50;;;0.50;;
22017;SDS011;11173;51.050;7.108;2024-02-14T01:51:03;0.40;;;0.40;;
22017;SDS011;11173;51.050;7.108;2024-02-14T02:01:04;0.30;;;0.30;;
22017;SDS011;11173;51.050;7.108;2024-02-14T02:11:05;0.40;;;0.40;;
22017;SDS011;11173;51.050;7.108;2024-02-14T02:21:06;0.38;;;0.38;;
22017;SDS011;11173;51.050;7.108;2024-02-14T02:31:07;0.30;;;0.30;;
22017;SDS011;11173;51.050;7.108;2024-02-14T02:41:07;0.20;;;0.20;;
22017;SDS011;11173;51.050;7.108;2024-02-14T02:51:07;0.25;;;0.25;;
22017;SDS011;11173;51.050;7.108;2024-02-14T03:01:08;0.30;;;0.30;;
22017;SDS011;11173;51.050;7.108;2024-02-14T03:11:09;0.30;;;0.30;;
22017;SDS011;11173;51.050;7.108;2024-02-14T03:21:09;0.20;;;0.20;;
22017;SDS011;11173;51.050;7.108;2024-02-14T03:31:12;0.20;;;0.20;;
22017;SDS011;11173;51.050;7.108;2024-02-14T03:41:14;0.30;;;0.30;;
22017;SDS011;11173;51.050;7.108;2024-02-14T03:51:14;0.28;;;0.28;;
22017;SDS011;11173;51.050;7.108;2024-02-14T04:01:16;0.40;;;0.40;;
22017;SDS011;11173;51.050;7.108;2024-02-14T04:11:16;0.30;;;0.30;;
22017;SDS011;11173;51.050;7.108;2024-02-14T04:21:17;0.30;;;0.30;;
22017;SDS011;11173;51.050;7.108;2024-02-14T04:31:17;0.32;;;0.32;;
22017;SDS011;11173;51.050;7.108;2024-02-14T04:41:17;0.25;;;0.25;;
22017;SDS011;11173;51.050;7.108;2024-02-14T04:51:17;0.30;;;0.30;;
22017;SDS011;11173;51.050;7.108;2024-02-14T05:01:18;0.50;;;0.50;;
22017;SDS011;11173;51.050;7.108;2024-02-14T05:11:18;0.25;;;0.25;;
22017;SDS011;11173;51.050;7.108;2024-02-14T05:21:21;0.20;;;0.20;;
22017;SDS011;11173;51.050;7.108;2024-02-14T05:31:22;0.20;;;0.20;;
22017;SDS011;11173;51.050;7.108;2024-02-14T05:41:22;0.30;;;0.30;;
22017;SDS011;11173;51.050;7.108;2024-02-14T05:51:23;0.30;;;0.30;;
22017;SDS011;11173;51.050;7.108;2024-02-14T06:01:24;0.30;;;0.30;;
22017;SDS011;11173;51.050;7.108;2024-02-14T06:11:24;0.40;;;0.40;;
22017;SDS011;11173;51.050;7.108;2024-02-14T06:21:24;0.20;;;0.20;;
22017;SDS011;11173;51.050;7.108;2024-02-14T06:31:25;0.30;;;0.30;;
22017;SDS011;11173;51.050;7.108;2024-02-14T06:41:26;0.20;;;0.20;;
22017;SDS011;11173;51.050;7.108;2024-02-14T06:51:26;0.30;;;0.30;;
22017;SDS011;11173;51.050;7.108;2024-02-14T07:01:26;0.30;;;0.30;;
22017;SDS011;11173;51.050;7.108;2024-02-14T07:11:27;0.55;;;0.30;;
22017;SDS011;11173;51.050;7.108;2024-02-14T07:21:27;0.28;;;0.28;;
22017;SDS011;11173;51.050;7.108;2024-02-14T07:31:28;0.30;;;0.25;;
22017;SDS011;11173;51.050;7.108;2024-02-14T07:41:29;0.20;;;0.20;;
22017;SDS011;11173;51.050;7.108;2024-02-14T07:51:29;0.10;;;0.10;;
22017;SDS011;11173;51.050;7.108;2024-02-14T08:01:34;0.20;;;0.20;;
22017;SDS011;11173;51.050;7.108;2024-02-14T08:11:34;0.20;;;0.20;;
22017;SDS011;11173;51.050;7.108;2024-02-14T08:21:34;0.17;;;0.17;;
22017;SDS011;11173;51.050;7.108;2024-02-14T08:31:34;0.20;;;0.20;;
22017;SDS011;11173;51.050;7.108;2024-02-14T08:41:35;0.30;;;0.30;;
22017;SDS011;11173;51.050;7.108;2024-02-14T08:51:35;0.20;;;0.20;;
22017;SDS011;11173;51.050;7.108;2024-02-14T09:01:37;0.10;;;0.10;;
22017;SDS011;11173;51.050;7.108;2024-02-14T09:11:37;0.10;;;0.10;;
22017;SDS011;11173;51.050;7.108;2024-02-14T09:21:37;0.10;;;0.10;;
22017;SDS011;11173;51.050;7.108;2024-02-14T09:31:38;0.20;;;0.20;;
22017;SDS011;11173;51.050;7.108;2024-02-14T09:41:40;0.10;;;0.10;;
22017;SDS011;11173;51.050;7.108;2024-02-14T09:51:44;0.10;;;0.10;;
22017;SDS011;11173;51.050;7.108;2024-02-14T10:01:44;0.00;;;0.00;;
22017;SDS011;11173;51.050;7.108;2024-02-14T10:11:46;0.20;;;0.20;;
22017;SDS011;11173;51.050;7.108;2024-02-14T10:21:56;0.13;;;0.13;;
22017;SDS011;11173;51.050;7.108;2024-02-14T10:31:57;0.20;;;0.20;;
22017;SDS011;11173;51.050;7.108;2024-02-14T10:41:58;0.20;;;0.17;;
22017;SDS011;11173;51.050;7.108;2024-02-14T10:52:00;0.10;;;0.10;;
22017;SDS011;11173;51.050;7.108;2024-02-14T11:02:04;0.13;;;0.13;;
22017;SDS011;11173;51.050;7.108;2024-02-14T11:12:08;0.20;;;0.20;;
22017;SDS011;11173;51.050;7.108;2024-02-14T11:22:11;0.25;;;0.25;;
22017;SDS011;11173;51.050;7.108;2024-02-14T11:32:12;0.85;;;0.45;;
22017;SDS011;11173;51.050;7.108;2024-02-14T11:42:14;1.67;;;0.40;;
22017;SDS011;11173;51.050;7.108;2024-02-14T11:52:14;0.50;;;0.38;;
22017;SDS011;11173;51.050;7.108;2024-02-14T12:02:14;0.30;;;0.28;;
22017;SDS011;11173;51.050;7.108;2024-02-14T12:12:15;0.52;;;0.30;;
22017;SDS011;11173;51.050;7.108;2024-02-14T12:22:15;0.77;;;0.43;;
22017;SDS011;11173;51.050;7.108;2024-02-14T12:32:19;0.30;;;0.30;;
22017;SDS011;11173;51.050;7.108;2024-02-14T12:42:19;1.27;;;0.20;;
22017;SDS011;11173;51.050;7.108;2024-02-14T12:52:25;0.10;;;0.10;;
22017;SDS011;11173;51.050;7.108;2024-02-14T13:02:25;0.10;;;0.10;;
22017;SDS011;11173;51.050;7.108;2024-02-14T13:12:26;0.10;;;0.10;;
22017;SDS011;11173;51.050;7.108;2024-02-14T13:22:27;0.32;;;0.15;;
22017;SDS011;11173;51.050;7.108;2024-02-14T13:32:27;0.25;;;0.20;;
22017;SDS011;11173;51.050;7.108;2024-02-14T13:42:28;0.15;;;0.15;;
22017;SDS011;11173;51.050;7.108;2024-02-14T13:52:28;0.10;;;0.10;;
22017;SDS011;11173;51.050;7.108;2024-02-14T14:02:28;0.10;;;0.10;;
22017;SDS011;11173;51.050;7.108;2024-02-14T14:12:29;0.10;;;0.10;;
22017;SDS011;11173;51.050;7.108;2024-02-14T14:22:29;0.10;;;0.10;;
22017;SDS011;11173;51.050;7.108;2024-02-14T14:32:29;0.10;;;0.10;;
22017;SDS011;11173;51.050;7.108;2024-02-14T14:42:30;0.10;;;0.10;;
22017;SDS011;11173;51.050;7.108;2024-02-14T14:52:30;0.10;;;0.10;;
22017;SDS011;11173;51.050;7.108;2024-02-14T15:02:30;0.20;;;0.20;;
22017;SDS011;11173;51.050;7.108;2024-02-14T15:12:31;0.10;;;0.10;;
22017;SDS011;11173;51.050;7.108;2024-02-14T15:22:31;0.20;;;0.10;;
22017;SDS011;11173;51.050;7.108;2024-02-14T15:32:31;0.20;;;0.20;;
22017;SDS011;11173;51.050;7.108;2024-02-14T15:42:50;0.10;;;0.10;;
22017;SDS011;11173;51.050;7.108;2024-02-14T15:52:50;0.10;;;0.10;;
22017;SDS011;11173;51.050;7.108;2024-02-14T16:02:51;0.20;;;0.20;;
22017;SDS011;11173;51.050;7.108;2024-02-14T16:12:51;0.20;;;0.20;;
22017;SDS011;11173;51.050;7.108;2024-02-14T16:22:52;0.40;;;0.40;;
22017;SDS011;11173;51.050;7.108;2024-02-14T16:32:53;0.20;;;0.20;;
22017;SDS011;11173;51.050;7.108;2024-02-14T16:42:53;0.30;;;0.30;;
22017;SDS011;11173;51.050;7.108;2024-02-14T16:52:54;0.77;;;0.30;;
22017;SDS011;11173;51.050;7.108;2024-02-14T17:02:54;0.40;;;0.40;;
22017;SDS011;11173;51.050;7.108;2024-02-14T17:12:55;0.20;;;0.20;;
22017;SDS011;11173;51.050;7.108;2024-02-14T17:22:55;0.30;;;0.30;;
22017;SDS011;11173;51.050;7.108;2024-02-14T17:32:55;0.30;;;0.30;;
22017;SDS011;11173;51.050;7.108;2024-02-14T17:42:58;0.20;;;0.20;;
22017;SDS011;11173;51.050;7.108;2024-02-14T17:52:58;0.30;;;0.30;;
22017;SDS011;11173;51.050;7.108;2024-02-14T18:02:58;0.30;;;0.30;;
22017;SDS011;11173;51.050;7.108;2024-02-14T18:12:59;0.17;;;0.17;;
22017;SDS011;11173;51.050;7.108;2024-02-14T18:22:59;0.60;;;0.30;;
22017;SDS011;11173;51.050;7.108;2024-02-14T18:33:00;0.22;;;0.22;;
22017;SDS011;11173;51.050;7.108;2024-02-14T18:43:00;0.20;;;0.20;;
22017;SDS011;11173;51.050;7.108;2024-02-14T18:53:03;0.40;;;0.40;;
22017;SDS011;11173;51.050;7.108;2024-02-14T19:03:03;0.30;;;0.30;;
22017;SDS011;11173;51.050;7.108;2024-02-14T19:13:04;0.30;;;0.30;;
22017;SDS011;11173;51.050;7.108;2024-02-14T19:23:07;0.40;;;0.40;;
22017;SDS011;11173;51.050;7.108;2024-02-14T19:33:07;0.25;;;0.25;;
22017;SDS011;11173;51.050;7.108;2024-02-14T19:43:07;0.30;;;0.30;;
22017;SDS011;11173;51.050;7.108;2024-02-14T19:53:08;0.20;;;0.20;;
22017;SDS011;11173;51.050;7.108;2024-02-14T20:03:08;0.40;;;0.35;;
22017;SDS011;11173;51.050;7.108;2024-02-14T20:13:08;0.38;;;0.38;;
22017;SDS011;11173;51.050;7.108;2024-02-14T20:23:08;0.30;;;0.30;;
22017;SDS011;11173;51.050;7.108;2024-02-14T20:33:11;0.55;;;0.55;;
22017;SDS011;11173;51.050;7.108;2024-02-14T20:43:12;0.40;;;0.40;;
22017;SDS011;11173;51.050;7.108;2024-02-14T20:53:12;0.32;;;0.32;;
22017;SDS011;11173;51.050;7.108;2024-02-14T21:03:12;0.85;;;0.30;;
22017;SDS011;11173;51.050;7.108;2024-02-14T21:13:13;0.50;;;0.50;;
22017;SDS011;11173;51.050;7.108;2024-02-14T21:23:14;0.20;;;0.20;;
22017;SDS011;11173;51.050;7.108;2024-02-14T21:33:15;0.20;;;0.20;;
22017;SDS011;11173;51.050;7.108;2024-02-14T21:43:16;0.20;;;0.20;;
22017;SDS011;11173;51.050;7.108;2024-02-14T21:53:16;0.25;;;0.25;;
22017;SDS011;11173;51.050;7.108;2024-02-14T22:03:16;0.20;;;0.20;;
22017;SDS011;11173;51.050;7.108;2024-02-14T22:13:17;0.30;;;0.30;;
22017;SDS011;11173;51.050;7.108;2024-02-14T22:23:17;0.20;;;0.20;;
22017;SDS011;11173;51.050;7.108;2024-02-14T22:33:18;0.10;;;0.10;;
22017;SDS011;11173;51.050;7.108;2024-02-14T22:43:20;0.10;;;0.10;;
22017;SDS011;11173;51.050;7.108;2024-02-14T22:53:20;0.20;;;0.20;;
22017;SDS011;11173;51.050;7.108;2024-02-14T23:03:20;0.30;;;0.30;;
22017;SDS011;11173;51.050;7.108;2024-02-14T23:13:20;0.10;;;0.10;;
22017;SDS011;11173;51.050;7.108;2024-02-14T23:23:21;0.32;;;0.20;;
22017;SDS011;11173;51.050;7.108;2024-02-14T23:33:21;0.10;;;0.10;;
22017;SDS011;11173;51.050;7.108;2024-02-14T23:43:21;0.20;;;0.20;;
22017;SDS011;11173;51.050;7.108;2024-02-14T23:53:23;0.20;;;0.20;;
